createdAt,value
2023-03-26T00:04:48.718Z,98751.69
2023-03-26T00:09:51.632Z,98747.13
2023-03-26T00:14:54.509Z,98753.38
2023-03-26T00:19:57.357Z,98742.72
2023-03-26T00:25:01.671Z,98743.56
2023-03-26T00:30:06.802Z,98746.72
2023-03-26T00:35:11.267Z,98742.28
2023-03-26T00:40:14.377Z,98739.47
2023-03-26T00:45:21.510Z,98746.28
2023-03-26T00:50:25.262Z,98744.00
2023-03-26T00:55:28.337Z,98747.75
2023-03-26T01:00:35.579Z,98733.72
2023-03-26T01:05:45.143Z,98749.41
2023-03-26T01:10:51.133Z,98742.81
2023-03-26T01:15:54.325Z,98741.94
2023-03-26T01:21:05.426Z,98747.34
2023-03-26T01:26:16.154Z,98754.56
2023-03-26T01:31:25.422Z,98758.00
2023-03-26T01:36:32.671Z,98768.25
2023-03-26T01:42:03.126Z,98765.97
2023-03-26T01:47:07.593Z,98759.91
2023-03-26T01:52:25.380Z,98757.53
2023-03-26T01:57:34.308Z,98770.78
2023-03-26T02:02:55.239Z,98762.63
2023-03-26T02:08:09.876Z,98763.06
2023-03-26T02:13:13.792Z,98760.88
2023-03-26T02:18:16.740Z,98759.03
2023-03-26T02:23:21.603Z,98760.69
2023-03-26T02:28:24.638Z,98759.72
2023-03-26T02:33:32.336Z,98773.13
2023-03-26T02:38:35.817Z,98778.78
2023-03-26T02:43:40.064Z,98771.19
2023-03-26T02:48:48.108Z,98767.00
2023-03-26T02:53:56.905Z,98760.09
2023-03-26T02:59:18.417Z,98756.28
2023-03-26T03:04:25.837Z,98766.41
2023-03-26T03:09:29.268Z,98770.88
2023-03-26T03:15:01.062Z,98758.16
2023-03-26T03:20:22.290Z,98761.44
2023-03-26T03:25:26.258Z,98761.19
2023-03-26T03:30:30.566Z,98764.22
2023-03-26T03:35:56.247Z,98760.59
2023-03-26T03:41:00.373Z,98760.59
2023-03-26T03:46:05.636Z,98756.31
2023-03-26T03:51:35.368Z,98759.53
2023-03-26T03:56:41.514Z,98759.00
2023-03-26T04:01:59.437Z,98765.31
2023-03-26T04:07:14.902Z,98763.38
2023-03-26T04:12:36.469Z,98761.94
2023-03-26T04:17:42.987Z,98765.38
2023-03-26T04:22:48.560Z,98766.81
2023-03-26T04:27:55.863Z,98776.25
2023-03-26T04:33:15.573Z,98764.81
2023-03-26T04:38:19.878Z,98771.69
2023-03-26T04:43:27.405Z,98763.84
2023-03-26T04:48:45.438Z,98767.19
2023-03-26T04:53:54.629Z,98767.34
2023-03-26T04:59:04.231Z,98768.34
2023-03-26T05:04:14.980Z,98760.38
2023-03-26T05:09:18.286Z,98759.19
2023-03-26T05:14:41.513Z,98755.56
2023-03-26T05:19:52.304Z,98748.13
2023-03-26T05:24:56.523Z,98744.13
2023-03-26T05:30:05.105Z,98744.38
2023-03-26T05:35:17.489Z,98745.72
2023-03-26T05:40:21.685Z,98744.75
2023-03-26T05:45:30.825Z,98752.41
2023-03-26T05:50:36.965Z,98745.38
2023-03-26T05:55:41.032Z,98737.75
2023-03-26T06:01:09.654Z,98745.50
2023-03-26T06:06:33.274Z,98753.06
2023-03-26T06:11:36.699Z,98743.34
2023-03-26T06:16:40.758Z,98733.88
2023-03-26T06:21:57.367Z,98725.66
2023-03-26T06:27:06.648Z,98723.34
2023-03-26T06:32:29.751Z,98714.34
2023-03-26T06:37:42.680Z,98702.28
2023-03-26T06:43:07.907Z,98691.03
2023-03-26T06:48:27.519Z,98694.47
2023-03-26T06:53:48.916Z,98698.69
2023-03-26T06:59:23.927Z,98691.59
2023-03-26T07:04:45.140Z,98691.44
2023-03-26T07:10:17.180Z,98680.09
2023-03-26T07:15:46.196Z,98686.00
2023-03-26T07:21:10.462Z,98690.81
2023-03-26T07:26:28.312Z,98690.38
2023-03-26T07:32:09.596Z,98691.38
2023-03-26T07:38:00.190Z,98683.06
2023-03-26T07:43:20.261Z,98685.28
2023-03-26T07:48:44.959Z,98689.81
2023-03-26T07:54:11.561Z,98689.78
2023-03-26T07:59:29.312Z,98677.69
2023-03-26T08:04:50.687Z,98660.84
2023-03-26T08:10:17.383Z,98670.25
2023-03-26T08:15:58.009Z,98672.59
2023-03-26T08:21:08.236Z,98673.69
2023-03-26T08:26:19.962Z,98659.56
2023-03-26T08:31:35.642Z,98680.22
2023-03-26T08:36:39.290Z,98672.13
2023-03-26T08:41:52.384Z,98660.09
2023-03-26T08:47:16.439Z,98667.38
2023-03-26T08:52:40.901Z,98669.22
2023-03-26T08:58:21.225Z,98664.38
2023-03-26T09:03:39.749Z,98660.78
2023-03-26T09:09:19.116Z,98667.91
2023-03-26T09:14:57.761Z,98661.66
2023-03-26T09:20:00.837Z,98639.59
2023-03-26T09:25:29.731Z,98651.09
2023-03-26T09:30:43.279Z,98652.59
2023-03-26T09:36:11.836Z,98644.81
2023-03-26T09:41:32.879Z,98650.53
2023-03-26T09:46:46.670Z,98640.09
2023-03-26T09:52:12.667Z,98643.41
2023-03-26T09:57:29.490Z,98657.22
2023-03-26T10:03:09.329Z,98652.34
2023-03-26T10:08:48.222Z,98637.06
2023-03-26T10:13:59.872Z,98631.50
2023-03-26T10:19:30.477Z,98617.00
2023-03-26T10:24:36.699Z,98636.19
2023-03-26T10:29:58.339Z,98644.34
2023-03-26T10:35:26.655Z,98650.75
2023-03-26T10:40:50.154Z,98643.25
2023-03-26T10:46:22.744Z,98623.78
2023-03-26T10:52:21.154Z,98638.97
2023-03-26T10:57:36.572Z,98631.41
2023-03-26T11:03:10.120Z,98614.09
2023-03-26T11:08:35.913Z,98630.88
2023-03-26T11:14:13.778Z,98620.59
2023-03-26T11:19:24.570Z,98619.38
2023-03-26T11:24:39.297Z,98621.41
2023-03-26T11:29:51.646Z,98625.09
2023-03-26T11:35:39.464Z,98607.91
2023-03-26T11:40:51.205Z,98607.97
2023-03-26T11:46:18.324Z,98616.81
2023-03-26T11:51:36.947Z,98615.00
2023-03-26T11:57:04.710Z,98605.41
2023-03-26T12:02:12.298Z,98613.34
2023-03-26T12:07:35.928Z,98587.63
2023-03-26T12:12:41.842Z,98598.34
2023-03-26T12:17:47.428Z,98599.69
2023-03-26T12:22:59.687Z,98592.13
2023-03-26T12:28:14.074Z,98594.75
2023-03-26T12:33:20.440Z,98586.69
2023-03-26T12:38:33.411Z,98603.03
2023-03-26T12:44:52.689Z,98598.16
2023-03-26T12:49:11.913Z,98590.25
2023-03-26T12:54:25.578Z,98588.19
2023-03-26T12:59:35.037Z,98577.97
2023-03-26T13:05:05.092Z,98572.81
2023-03-26T13:10:27.526Z,98571.31
2023-03-26T13:16:19.216Z,98560.03
2023-03-26T13:21:48.159Z,98546.72
2023-03-26T13:27:06.532Z,98550.72
2023-03-26T13:32:30.036Z,98535.03
2023-03-26T13:37:51.556Z,98529.69
2023-03-26T13:43:14.449Z,98529.66
2023-03-26T13:48:23.176Z,98533.22
2023-03-26T13:53:42.184Z,98532.72
2023-03-26T13:58:59.835Z,98527.78
2023-03-26T14:04:25.908Z,98518.00
2023-03-26T14:09:51.548Z,98514.59
2023-03-26T14:14:57.651Z,98515.72
2023-03-26T14:20:32.991Z,98514.16
2023-03-26T14:25:57.353Z,98511.31
2023-03-26T14:31:27.544Z,98511.53
2023-03-26T14:37:06.195Z,98501.66
2023-03-26T14:42:29.717Z,98508.34
2023-03-26T14:47:42.279Z,98497.75
2023-03-26T14:52:52.003Z,98493.53
2023-03-26T14:58:04.300Z,98488.53
2023-03-26T15:03:26.416Z,98492.13
2023-03-26T15:08:58.870Z,98487.81
2023-03-26T15:14:41.061Z,98483.28
2023-03-26T15:20:00.578Z,98482.81
2023-03-26T15:25:38.969Z,98481.09
2023-03-26T15:31:19.016Z,98483.72
2023-03-26T15:37:12.231Z,98484.72
2023-03-26T15:42:45.876Z,98475.66
2023-03-26T15:48:13.706Z,98475.75
2023-03-26T15:53:38.761Z,98470.09
2023-03-26T15:59:12.162Z,98474.50
2023-03-26T16:04:50.272Z,98472.53
2023-03-26T16:10:41.041Z,98463.47
2023-03-26T16:16:15.091Z,98472.03
2023-03-26T16:21:39.897Z,98466.72
2023-03-26T16:26:51.624Z,98467.00
2023-03-26T16:32:09.481Z,98450.81
2023-03-26T16:37:36.936Z,98447.66
2023-03-26T16:43:02.990Z,98441.66
2023-03-26T16:48:17.952Z,98442.75
2023-03-26T16:53:41.907Z,98443.09
2023-03-26T16:58:44.716Z,98444.38
2023-03-26T17:04:12.939Z,98433.63
2023-03-26T17:09:43.068Z,98433.09
2023-03-26T17:14:55.861Z,98427.66
2023-03-26T17:20:13.866Z,98416.78
2023-03-26T17:25:34.231Z,98400.31
2023-03-26T17:31:03.692Z,98403.41
2023-03-26T17:36:12.791Z,98397.88
2023-03-26T17:42:01.691Z,98398.34
2023-03-26T17:47:50.284Z,98391.13
2023-03-26T17:53:06.170Z,98389.06
2023-03-26T17:58:37.783Z,98386.06
2023-03-26T18:03:49.663Z,98384.56
2023-03-26T18:09:13.716Z,98385.56
2023-03-26T18:14:16.914Z,98375.19
2023-03-26T18:19:23.251Z,98375.44
2023-03-26T18:24:37.867Z,98368.06
2023-03-26T18:29:46.148Z,98374.59
2023-03-26T18:34:58.669Z,98351.19
2023-03-26T18:40:12.419Z,98360.56
2023-03-26T18:45:24.473Z,98371.56
2023-03-26T18:50:35.032Z,98386.31
2023-03-26T18:55:39.856Z,98391.91
2023-03-26T19:00:43.092Z,98388.16
2023-03-26T19:05:46.508Z,98398.91
2023-03-26T19:11:11.060Z,98400.22
2023-03-26T19:16:36.186Z,98398.63
2023-03-26T19:21:41.608Z,98395.69
2023-03-26T19:26:45.414Z,98401.53
2023-03-26T19:31:52.604Z,98384.25
2023-03-26T19:37:01.156Z,98382.78
2023-03-26T19:42:06.689Z,98384.44
2023-03-26T19:47:29.037Z,98378.28
2023-03-26T19:52:38.716Z,98373.94
2023-03-26T19:57:41.560Z,98378.59
2023-03-26T20:02:49.023Z,98375.13
2023-03-26T20:07:53.117Z,98381.91
2023-03-26T20:12:56.016Z,98380.09
2023-03-26T20:17:59.169Z,98373.78
2023-03-26T20:23:02.495Z,98366.88
2023-03-26T20:28:06.089Z,98361.00
2023-03-26T20:33:17.142Z,98358.31
2023-03-26T20:38:24.067Z,98349.91
2023-03-26T20:43:32.463Z,98352.00
2023-03-26T20:48:35.616Z,98353.78
2023-03-26T20:53:38.412Z,98350.94
2023-03-26T20:58:41.768Z,98349.44
2023-03-26T21:03:46.102Z,98360.09
2023-03-26T21:08:49.278Z,98348.09
2023-03-26T21:14:19.419Z,98346.13
2023-03-26T21:19:22.622Z,98344.47
2023-03-26T21:24:58.374Z,98327.94
2023-03-26T21:30:02.903Z,98329.00
2023-03-26T21:35:09.166Z,98326.13
2023-03-26T21:40:17.145Z,98322.69
2023-03-26T21:45:39.414Z,98320.44
2023-03-26T21:50:44.158Z,98319.22
2023-03-26T21:56:06.852Z,98319.53
2023-03-26T22:01:33.625Z,98296.97
2023-03-26T22:06:49.219Z,98300.75
2023-03-26T22:11:52.158Z,98288.88
2023-03-26T22:16:55.220Z,98279.41
2023-03-26T22:22:16.458Z,98273.22
2023-03-26T22:27:19.416Z,98267.22
2023-03-26T22:32:23.328Z,98267.50
2023-03-26T22:37:27.488Z,98269.00
2023-03-26T22:42:30.371Z,98264.81
2023-03-26T22:47:36.335Z,98262.38
2023-03-26T22:52:40.856Z,98254.75
2023-03-26T22:57:43.782Z,98251.31
2023-03-26T23:02:47.275Z,98246.06
2023-03-26T23:07:52.067Z,98235.69
2023-03-26T23:12:54.938Z,98224.56
2023-03-26T23:17:58.940Z,98214.06
2023-03-26T23:23:02.333Z,98200.69
2023-03-26T23:28:05.240Z,98191.66
2023-03-26T23:33:09.222Z,98154.88
2023-03-26T23:38:13.188Z,98145.25
2023-03-26T23:43:16.085Z,98136.38
2023-03-26T23:48:24.884Z,98119.06
2023-03-26T23:53:30.693Z,98105.94
2023-03-26T23:58:33.643Z,98099.97
